sensor_id;sensor_type;location;lat;lon;timestamp;P1;durP1;ratioP1;P2;durP2;ratioP2
35667;SDS011;22158;59.280;17.806;2024-03-02T13:37:50;21.13;;;10.73;;
35667;SDS011;22158;59.280;17.806;2024-03-02T13:40:16;24.58;;;12.77;;
35667;SDS011;22158;59.280;17.806;2024-03-02T13:42:48;22.77;;;12.25;;
35667;SDS011;22158;59.280;17.806;2024-03-02T13:45:14;23.85;;;13.15;;
35667;SDS011;22158;59.280;17.806;2024-03-02T13:47:40;25.40;;;12.82;;
35667;SDS011;22158;59.280;17.806;2024-03-02T13:50:07;28.50;;;12.77;;
35667;SDS011;22158;59.280;17.806;2024-03-02T13:52:33;21.52;;;11.57;;
35667;SDS011;22158;59.280;17.806;2024-03-02T13:54:58;23.60;;;12.85;;
35667;SDS011;22158;59.280;17.806;2024-03-02T13:57:24;24.80;;;13.18;;
35667;SDS011;22158;59.280;17.806;2024-03-02T13:59:50;20.80;;;13.50;;
35667;SDS011;22158;59.280;17.806;2024-03-02T14:02:17;20.83;;;11.77;;
35667;SDS011;22158;59.280;17.806;2024-03-02T14:04:43;22.33;;;11.18;;
35667;SDS011;22158;59.280;17.806;2024-03-02T14:07:09;23.35;;;12.45;;
35667;SDS011;22158;59.280;17.806;2024-03-02T14:09:38;22.65;;;12.05;;
35667;SDS011;22158;59.280;17.806;2024-03-02T14:12:04;21.27;;;12.43;;
35667;SDS011;22158;59.280;17.806;2024-03-02T14:14:30;22.52;;;13.20;;
35667;SDS011;22158;59.280;17.806;2024-03-02T14:16:56;20.67;;;10.98;;
35667;SDS011;22158;59.280;17.806;2024-03-02T14:19:25;21.15;;;11.52;;
35667;SDS011;22158;59.280;17.806;2024-03-02T14:21:52;23.25;;;13.18;;
35667;SDS011;22158;59.280;17.806;2024-03-02T14:24:17;22.77;;;12.25;;
35667;SDS011;22158;59.280;17.806;2024-03-02T14:26:43;22.40;;;12.40;;
35667;SDS011;22158;59.280;17.806;2024-03-02T14:29:10;27.27;;;11.88;;
35667;SDS011;22158;59.280;17.806;2024-03-02T14:31:36;23.67;;;11.77;;
35667;SDS011;22158;59.280;17.806;2024-03-02T14:34:02;22.13;;;11.77;;
35667;SDS011;22158;59.280;17.806;2024-03-02T14:36:27;18.63;;;12.18;;
35667;SDS011;22158;59.280;17.806;2024-03-02T14:38:54;25.77;;;12.52;;
35667;SDS011;22158;59.280;17.806;2024-03-02T14:41:20;43.78;;;15.55;;
35667;SDS011;22158;59.280;17.806;2024-03-02T14:43:46;21.67;;;12.02;;
35667;SDS011;22158;59.280;17.806;2024-03-02T14:46:11;27.55;;;12.32;;
35667;SDS011;22158;59.280;17.806;2024-03-02T14:48:37;30.58;;;14.50;;
35667;SDS011;22158;59.280;17.806;2024-03-02T14:51:04;25.55;;;13.77;;
35667;SDS011;22158;59.280;17.806;2024-03-02T14:53:29;22.70;;;11.73;;
35667;SDS011;22158;59.280;17.806;2024-03-02T14:55:55;22.00;;;12.10;;
35667;SDS011;22158;59.280;17.806;2024-03-02T14:58:21;24.80;;;12.70;;
35667;SDS011;22158;59.280;17.806;2024-03-02T15:00:46;23.42;;;12.88;;
35667;SDS011;22158;59.280;17.806;2024-03-02T15:03:12;23.17;;;12.88;;
35667;SDS011;22158;59.280;17.806;2024-03-02T15:05:38;23.77;;;12.80;;
35667;SDS011;22158;59.280;17.806;2024-03-02T15:08:05;24.08;;;11.23;;
35667;SDS011;22158;59.280;17.806;2024-03-02T15:10:31;35.28;;;13.02;;
35667;SDS011;22158;59.280;17.806;2024-03-02T15:12:57;23.88;;;12.25;;
35667;SDS011;22158;59.280;17.806;2024-03-02T15:15:23;24.77;;;12.45;;
35667;SDS011;22158;59.280;17.806;2024-03-02T15:17:49;24.92;;;13.02;;
35667;SDS011;22158;59.280;17.806;2024-03-02T15:20:15;22.38;;;13.15;;
35667;SDS011;22158;59.280;17.806;2024-03-02T15:22:41;26.20;;;13.23;;
35667;SDS011;22158;59.280;17.806;2024-03-02T15:25:07;26.20;;;13.43;;
35667;SDS011;22158;59.280;17.806;2024-03-02T15:27:33;26.05;;;13.45;;
35667;SDS011;22158;59.280;17.806;2024-03-02T15:29:58;23.30;;;12.90;;
35667;SDS011;22158;59.280;17.806;2024-03-02T15:32:24;21.00;;;12.80;;
35667;SDS011;22158;59.280;17.806;2024-03-02T15:34:52;27.80;;;14.13;;
35667;SDS011;22158;59.280;17.806;2024-03-02T15:37:18;21.83;;;13.55;;
35667;SDS011;22158;59.280;17.806;2024-03-02T15:39:43;27.67;;;14.32;;
35667;SDS011;22158;59.280;17.806;2024-03-02T15:42:09;23.08;;;12.75;;
35667;SDS011;22158;59.280;17.806;2024-03-02T15:44:35;27.65;;;15.02;;
35667;SDS011;22158;59.280;17.806;2024-03-02T15:47:01;22.80;;;13.43;;
35667;SDS011;22158;59.280;17.806;2024-03-02T15:49:27;22.83;;;13.60;;
35667;SDS011;22158;59.280;17.806;2024-03-02T15:51:54;26.67;;;15.18;;
35667;SDS011;22158;59.280;17.806;2024-03-02T15:54:19;22.80;;;13.98;;
35667;SDS011;22158;59.280;17.806;2024-03-02T15:56:45;21.60;;;13.30;;
35667;SDS011;22158;59.280;17.806;2024-03-02T15:59:11;24.45;;;14.80;;
35667;SDS011;22158;59.280;17.806;2024-03-02T16:01:36;26.58;;;14.45;;
35667;SDS011;22158;59.280;17.806;2024-03-02T16:04:02;24.13;;;14.00;;
35667;SDS011;22158;59.280;17.806;2024-03-02T16:06:28;24.45;;;14.07;;
35667;SDS011;22158;59.280;17.806;2024-03-02T16:08:54;24.20;;;13.63;;
35667;SDS011;22158;59.280;17.806;2024-03-02T16:11:22;26.25;;;14.32;;
35667;SDS011;22158;59.280;17.806;2024-03-02T16:13:47;27.80;;;13.73;;
35667;SDS011;22158;59.280;17.806;2024-03-02T16:16:13;24.42;;;13.85;;
35667;SDS011;22158;59.280;17.806;2024-03-02T16:18:39;22.00;;;12.88;;
35667;SDS011;22158;59.280;17.806;2024-03-02T16:21:05;23.60;;;14.82;;
35667;SDS011;22158;59.280;17.806;2024-03-02T16:23:32;24.13;;;12.88;;
35667;SDS011;22158;59.280;17.806;2024-03-02T16:25:58;22.00;;;13.32;;
35667;SDS011;22158;59.280;17.806;2024-03-02T16:28:23;23.38;;;14.40;;
35667;SDS011;22158;59.280;17.806;2024-03-02T16:30:49;22.10;;;14.00;;
35667;SDS011;22158;59.280;17.806;2024-03-02T16:33:15;23.80;;;14.77;;
35667;SDS011;22158;59.280;17.806;2024-03-02T16:35:41;25.38;;;14.75;;
35667;SDS011;22158;59.280;17.806;2024-03-02T16:38:07;32.40;;;15.45;;
35667;SDS011;22158;59.280;17.806;2024-03-02T16:40:33;30.15;;;16.15;;
35667;SDS011;22158;59.280;17.806;2024-03-02T16:42:59;25.88;;;14.80;;
35667;SDS011;22158;59.280;17.806;2024-03-02T16:45:24;28.80;;;13.82;;
35667;SDS011;22158;59.280;17.806;2024-03-02T16:47:50;28.95;;;15.00;;
35667;SDS011;22158;59.280;17.806;2024-03-02T16:50:16;29.63;;;15.00;;
35667;SDS011;22158;59.280;17.806;2024-03-02T16:52:42;28.30;;;15.45;;
35667;SDS011;22158;59.280;17.806;2024-03-02T16:55:08;26.30;;;15.20;;
35667;SDS011;22158;59.280;17.806;2024-03-02T16:57:34;32.83;;;16.42;;
35667;SDS011;22158;59.280;17.806;2024-03-02T16:59:59;24.67;;;14.20;;
35667;SDS011;22158;59.280;17.806;2024-03-02T17:02:25;37.03;;;16.73;;
35667;SDS011;22158;59.280;17.806;2024-03-02T17:04:51;25.60;;;14.75;;
35667;SDS011;22158;59.280;17.806;2024-03-02T17:07:18;26.83;;;16.65;;
35667;SDS011;22158;59.280;17.806;2024-03-02T17:09:43;30.52;;;15.48;;
35667;SDS011;22158;59.280;17.806;2024-03-02T17:12:09;26.35;;;14.63;;
35667;SDS011;22158;59.280;17.806;2024-03-02T17:14:34;34.05;;;15.63;;
35667;SDS011;22158;59.280;17.806;2024-03-02T17:17:00;25.30;;;15.32;;
35667;SDS011;22158;59.280;17.806;2024-03-02T17:19:26;28.45;;;15.88;;
35667;SDS011;22158;59.280;17.806;2024-03-02T17:21:53;28.10;;;14.60;;
35667;SDS011;22158;59.280;17.806;2024-03-02T17:24:18;31.90;;;16.92;;
35667;SDS011;22158;59.280;17.806;2024-03-02T17:26:44;40.28;;;17.25;;
35667;SDS011;22158;59.280;17.806;2024-03-02T17:29:10;23.63;;;14.05;;
35667;SDS011;22158;59.280;17.806;2024-03-02T17:31:35;29.10;;;15.32;;
35667;SDS011;22158;59.280;17.806;2024-03-02T17:34:01;29.63;;;15.88;;
35667;SDS011;22158;59.280;17.806;2024-03-02T17:36:27;30.17;;;17.23;;
35667;SDS011;22158;59.280;17.806;2024-03-02T17:38:52;24.17;;;15.02;;
35667;SDS011;22158;59.280;17.806;2024-03-02T17:41:18;25.35;;;15.55;;
35667;SDS011;22158;59.280;17.806;2024-03-02T17:43:44;26.15;;;15.93;;
35667;SDS011;22158;59.280;17.806;2024-03-02T17:46:09;30.80;;;14.73;;
35667;SDS011;22158;59.280;17.806;2024-03-02T17:48:35;36.28;;;16.58;;
35667;SDS011;22158;59.280;17.806;2024-03-02T17:51:01;25.10;;;13.98;;
35667;SDS011;22158;59.280;17.806;2024-03-02T17:53:26;27.33;;;15.10;;
35667;SDS011;22158;59.280;17.806;2024-03-02T17:55:52;28.30;;;14.82;;
35667;SDS011;22158;59.280;17.806;2024-03-02T17:58:18;29.63;;;16.13;;
35667;SDS011;22158;59.280;17.806;2024-03-02T18:00:43;29.38;;;15.52;;
35667;SDS011;22158;59.280;17.806;2024-03-02T18:03:11;26.80;;;14.45;;
35667;SDS011;22158;59.280;17.806;2024-03-02T18:05:37;29.13;;;16.92;;
35667;SDS011;22158;59.280;17.806;2024-03-02T18:08:02;25.90;;;14.60;;
35667;SDS011;22158;59.280;17.806;2024-03-02T18:10:28;28.48;;;15.07;;
35667;SDS011;22158;59.280;17.806;2024-03-02T18:12:54;34.30;;;17.30;;
35667;SDS011;22158;59.280;17.806;2024-03-02T18:15:21;26.55;;;13.55;;
35667;SDS011;22158;59.280;17.806;2024-03-02T18:17:47;24.48;;;16.25;;
35667;SDS011;22158;59.280;17.806;2024-03-02T18:20:12;26.58;;;15.48;;
35667;SDS011;22158;59.280;17.806;2024-03-02T18:22:38;32.90;;;15.40;;
35667;SDS011;22158;59.280;17.806;2024-03-02T18:25:04;24.92;;;14.52;;
35667;SDS011;22158;59.280;17.806;2024-03-02T18:27:30;29.23;;;16.10;;
35667;SDS011;22158;59.280;17.806;2024-03-02T18:29:56;28.00;;;15.32;;
35667;SDS011;22158;59.280;17.806;2024-03-02T18:32:22;26.65;;;14.55;;
35667;SDS011;22158;59.280;17.806;2024-03-02T18:34:48;28.35;;;16.08;;
35667;SDS011;22158;59.280;17.806;2024-03-02T18:37:13;29.50;;;14.07;;
35667;SDS011;22158;59.280;17.806;2024-03-02T18:39:40;42.28;;;17.98;;
35667;SDS011;22158;59.280;17.806;2024-03-02T18:42:06;27.08;;;16.48;;
35667;SDS011;22158;59.280;17.806;2024-03-02T18:44:32;26.15;;;15.65;;
35667;SDS011;22158;59.280;17.806;2024-03-02T18:46:58;29.63;;;15.35;;
35667;SDS011;22158;59.280;17.806;2024-03-02T18:49:24;38.00;;;16.85;;
35667;SDS011;22158;59.280;17.806;2024-03-02T18:51:50;32.33;;;16.52;;
35667;SDS011;22158;59.280;17.806;2024-03-02T18:54:16;29.77;;;18.02;;
35667;SDS011;22158;59.280;17.806;2024-03-02T18:56:41;32.20;;;18.38;;
35667;SDS011;22158;59.280;17.806;2024-03-02T18:59:07;28.48;;;17.35;;
35667;SDS011;22158;59.280;17.806;2024-03-02T19:01:33;35.13;;;16.92;;
35667;SDS011;22158;59.280;17.806;2024-03-02T19:03:59;27.90;;;16.40;;
35667;SDS011;22158;59.280;17.806;2024-03-02T19:06:24;30.17;;;16.70;;
35667;SDS011;22158;59.280;17.806;2024-03-02T19:08:50;32.17;;;15.88;;
35667;SDS011;22158;59.280;17.806;2024-03-02T19:11:16;34.92;;;18.90;;
35667;SDS011;22158;59.280;17.806;2024-03-02T19:13:43;31.50;;;17.20;;
35667;SDS011;22158;59.280;17.806;2024-03-02T19:16:13;30.10;;;17.40;;
35667;SDS011;22158;59.280;17.806;2024-03-02T19:18:42;31.17;;;16.15;;
35667;SDS011;22158;59.280;17.806;2024-03-02T19:21:09;35.33;;;15.57;;
35667;SDS011;22158;59.280;17.806;2024-03-02T19:23:35;28.38;;;16.20;;
35667;SDS011;22158;59.280;17.806;2024-03-02T19:26:01;25.75;;;16.05;;
35667;SDS011;22158;59.280;17.806;2024-03-02T19:28:28;30.10;;;16.60;;
35667;SDS011;22158;59.280;17.806;2024-03-02T19:30:54;26.73;;;16.55;;
35667;SDS011;22158;59.280;17.806;2024-03-02T19:33:19;33.85;;;16.77;;
35667;SDS011;22158;59.280;17.806;2024-03-02T19:35:45;36.58;;;15.05;;
35667;SDS011;22158;59.280;17.806;2024-03-02T19:38:11;30.98;;;17.35;;
35667;SDS011;22158;59.280;17.806;2024-03-02T19:40:38;24.48;;;15.35;;
35667;SDS011;22158;59.280;17.806;2024-03-02T19:43:07;32.25;;;16.02;;
35667;SDS011;22158;59.280;17.806;2024-03-02T19:45:32;36.75;;;18.65;;
35667;SDS011;22158;59.280;17.806;2024-03-02T19:47:58;34.15;;;19.52;;
35667;SDS011;22158;59.280;17.806;2024-03-02T19:50:24;34.50;;;15.90;;
35667;SDS011;22158;59.280;17.806;2024-03-02T19:52:50;25.90;;;15.02;;
35667;SDS011;22158;59.280;17.806;2024-03-02T19:55:17;29.20;;;17.55;;
35667;SDS011;22158;59.280;17.806;2024-03-02T19:57:42;28.63;;;16.40;;
35667;SDS011;22158;59.280;17.806;2024-03-02T20:00:14;28.95;;;18.48;;
35667;SDS011;22158;59.280;17.806;2024-03-02T20:02:41;27.20;;;16.55;;
35667;SDS011;22158;59.280;17.806;2024-03-02T20:05:07;34.45;;;19.38;;
35667;SDS011;22158;59.280;17.806;2024-03-02T20:07:33;28.45;;;16.45;;
35667;SDS011;22158;59.280;17.806;2024-03-02T20:10:01;27.15;;;14.77;;
35667;SDS011;22158;59.280;17.806;2024-03-02T20:12:31;25.85;;;16.02;;
35667;SDS011;22158;59.280;17.806;2024-03-02T20:15:00;27.45;;;15.60;;
35667;SDS011;22158;59.280;17.806;2024-03-02T20:17:26;29.08;;;15.93;;
35667;SDS011;22158;59.280;17.806;2024-03-02T20:19:52;28.80;;;16.40;;
35667;SDS011;22158;59.280;17.806;2024-03-02T20:22:18;31.60;;;17.40;;
35667;SDS011;22158;59.280;17.806;2024-03-02T20:24:44;27.40;;;16.80;;
35667;SDS011;22158;59.280;17.806;2024-03-02T20:27:10;32.90;;;16.20;;
35667;SDS011;22158;59.280;17.806;2024-03-02T20:29:36;36.80;;;17.75;;
35667;SDS011;22158;59.280;17.806;2024-03-02T20:32:02;36.45;;;17.45;;
35667;SDS011;22158;59.280;17.806;2024-03-02T20:34:28;27.77;;;16.58;;
35667;SDS011;22158;59.280;17.806;2024-03-02T20:36:53;33.38;;;17.33;;
35667;SDS011;22158;59.280;17.806;2024-03-02T20:39:21;32.63;;;16.70;;
35667;SDS011;22158;59.280;17.806;2024-03-02T20:41:48;30.00;;;16.98;;
35667;SDS011;22158;59.280;17.806;2024-03-02T20:44:15;30.08;;;16.15;;
35667;SDS011;22158;59.280;17.806;2024-03-02T20:46:42;30.40;;;16.13;;
35667;SDS011;22158;59.280;17.806;2024-03-02T20:49:08;30.45;;;17.40;;
35667;SDS011;22158;59.280;17.806;2024-03-02T20:51:34;29.55;;;17.02;;
35667;SDS011;22158;59.280;17.806;2024-03-02T20:54:00;26.85;;;17.05;;
35667;SDS011;22158;59.280;17.806;2024-03-02T20:56:28;31.50;;;16.08;;
35667;SDS011;22158;59.280;17.806;2024-03-02T20:58:54;25.55;;;15.27;;
35667;SDS011;22158;59.280;17.806;2024-03-02T21:01:20;30.25;;;15.73;;
35667;SDS011;22158;59.280;17.806;2024-03-02T21:03:46;24.85;;;16.38;;
35667;SDS011;22158;59.280;17.806;2024-03-02T21:06:12;30.85;;;16.63;;
35667;SDS011;22158;59.280;17.806;2024-03-02T21:08:38;30.83;;;17.00;;
35667;SDS011;22158;59.280;17.806;2024-03-02T21:11:03;26.20;;;15.05;;
35667;SDS011;22158;59.280;17.806;2024-03-02T21:13:30;27.13;;;15.35;;
35667;SDS011;22158;59.280;17.806;2024-03-02T21:15:56;24.83;;;14.70;;
35667;SDS011;22158;59.280;17.806;2024-03-02T21:18:22;28.35;;;16.67;;
35667;SDS011;22158;59.280;17.806;2024-03-02T21:20:48;28.33;;;15.82;;
35667;SDS011;22158;59.280;17.806;2024-03-02T21:23:25;28.55;;;15.00;;
35667;SDS011;22158;59.280;17.806;2024-03-02T21:25:54;25.58;;;13.40;;
35667;SDS011;22158;59.280;17.806;2024-03-02T21:28:20;28.33;;;15.82;;
35667;SDS011;22158;59.280;17.806;2024-03-02T21:30:46;28.83;;;15.60;;
35667;SDS011;22158;59.280;17.806;2024-03-02T21:33:12;27.17;;;14.98;;
35667;SDS011;22158;59.280;17.806;2024-03-02T21:35:37;33.38;;;15.23;;
35667;SDS011;22158;59.280;17.806;2024-03-02T21:38:03;26.90;;;14.52;;
35667;SDS011;22158;59.280;17.806;2024-03-02T21:40:31;31.67;;;15.52;;
35667;SDS011;22158;59.280;17.806;2024-03-02T21:42:57;27.75;;;14.15;;
35667;SDS011;22158;59.280;17.806;2024-03-02T21:45:23;25.67;;;13.65;;
35667;SDS011;22158;59.280;17.806;2024-03-02T21:47:49;24.67;;;14.25;;
35667;SDS011;22158;59.280;17.806;2024-03-02T21:50:15;20.75;;;13.25;;
35667;SDS011;22158;59.280;17.806;2024-03-02T21:52:44;30.90;;;14.32;;
35667;SDS011;22158;59.280;17.806;2024-03-02T21:55:11;22.63;;;13.57;;
35667;SDS011;22158;59.280;17.806;2024-03-02T21:57:38;29.08;;;13.35;;
35667;SDS011;22158;59.280;17.806;2024-03-02T22:00:04;28.42;;;13.90;;
35667;SDS011;22158;59.280;17.806;2024-03-02T22:02:31;23.75;;;13.45;;
35667;SDS011;22158;59.280;17.806;2024-03-02T22:04:57;24.55;;;14.10;;
35667;SDS011;22158;59.280;17.806;2024-03-02T22:07:25;29.38;;;14.52;;
35667;SDS011;22158;59.280;17.806;2024-03-02T22:09:51;26.63;;;14.40;;
35667;SDS011;22158;59.280;17.806;2024-03-02T22:12:17;22.15;;;13.75;;
35667;SDS011;22158;59.280;17.806;2024-03-02T22:14:42;25.10;;;14.77;;
35667;SDS011;22158;59.280;17.806;2024-03-02T22:17:08;28.65;;;15.00;;
35667;SDS011;22158;59.280;17.806;2024-03-02T22:19:34;26.52;;;15.20;;
35667;SDS011;22158;59.280;17.806;2024-03-02T22:21:59;23.23;;;13.27;;
35667;SDS011;22158;59.280;17.806;2024-03-02T22:24:25;27.38;;;12.95;;
35667;SDS011;22158;59.280;17.806;2024-03-02T22:26:54;27.33;;;14.45;;
35667;SDS011;22158;59.280;17.806;2024-03-02T22:29:20;21.85;;;12.68;;
35667;SDS011;22158;59.280;17.806;2024-03-02T22:31:46;26.05;;;13.52;;
35667;SDS011;22158;59.280;17.806;2024-03-02T22:34:12;29.48;;;14.48;;
35667;SDS011;22158;59.280;17.806;2024-03-02T22:36:37;32.63;;;14.43;;
35667;SDS011;22158;59.280;17.806;2024-03-02T22:39:03;27.05;;;16.00;;
35667;SDS011;22158;59.280;17.806;2024-03-02T22:41:29;27.15;;;14.73;;
35667;SDS011;22158;59.280;17.806;2024-03-02T22:43:55;25.73;;;14.18;;
35667;SDS011;22158;59.280;17.806;2024-03-02T22:46:23;29.60;;;14.45;;
35667;SDS011;22158;59.280;17.806;2024-03-02T22:48:49;21.98;;;13.75;;
35667;SDS011;22158;59.280;17.806;2024-03-02T22:51:21;25.60;;;13.40;;
35667;SDS011;22158;59.280;17.806;2024-03-02T22:53:47;22.88;;;13.38;;
35667;SDS011;22158;59.280;17.806;2024-03-02T22:56:13;22.85;;;12.38;;
35667;SDS011;22158;59.280;17.806;2024-03-02T22:58:39;21.92;;;13.77;;
35667;SDS011;22158;59.280;17.806;2024-03-02T23:01:05;22.80;;;13.25;;
35667;SDS011;22158;59.280;17.806;2024-03-02T23:03:34;23.77;;;13.13;;
35667;SDS011;22158;59.280;17.806;2024-03-02T23:06:04;22.33;;;13.60;;
35667;SDS011;22158;59.280;17.806;2024-03-02T23:08:33;20.20;;;12.20;;
35667;SDS011;22158;59.280;17.806;2024-03-02T23:10:59;20.45;;;12.23;;
35667;SDS011;22158;59.280;17.806;2024-03-02T23:13:26;23.38;;;12.57;;
35667;SDS011;22158;59.280;17.806;2024-03-02T23:15:52;24.25;;;11.85;;
35667;SDS011;22158;59.280;17.806;2024-03-02T23:18:19;26.75;;;12.57;;
35667;SDS011;22158;59.280;17.806;2024-03-02T23:20:45;23.75;;;12.15;;
35667;SDS011;22158;59.280;17.806;2024-03-02T23:23:10;27.95;;;12.80;;
35667;SDS011;22158;59.280;17.806;2024-03-02T23:25:36;22.42;;;12.32;;
35667;SDS011;22158;59.280;17.806;2024-03-02T23:28:02;28.23;;;12.63;;
35667;SDS011;22158;59.280;17.806;2024-03-02T23:30:28;24.80;;;11.20;;
35667;SDS011;22158;59.280;17.806;2024-03-02T23:32:54;21.88;;;12.27;;
35667;SDS011;22158;59.280;17.806;2024-03-02T23:35:20;18.95;;;11.80;;
35667;SDS011;22158;59.280;17.806;2024-03-02T23:37:49;20.15;;;11.98;;
35667;SDS011;22158;59.280;17.806;2024-03-02T23:40:15;22.77;;;12.68;;
35667;SDS011;22158;59.280;17.806;2024-03-02T23:42:41;25.40;;;12.73;;
35667;SDS011;22158;59.280;17.806;2024-03-02T23:45:08;27.92;;;13.02;;
35667;SDS011;22158;59.280;17.806;2024-03-02T23:47:34;20.02;;;11.25;;
35667;SDS011;22158;59.280;17.806;2024-03-02T23:50:00;21.25;;;12.40;;
35667;SDS011;22158;59.280;17.806;2024-03-02T23:52:27;22.90;;;11.05;;
35667;SDS011;22158;59.280;17.806;2024-03-02T23:54:54;21.65;;;11.30;;
35667;SDS011;22158;59.280;17.806;2024-03-02T23:57:19;19.27;;;11.85;;
35667;SDS011;22158;59.280;17.806;2024-03-02T23:59:45;20.20;;;11.70;;
